sensor_id;sensor_type;location;lat;lon;timestamp;temperature;humidity
2489;DHT22;1255;48.716;9.124;2024-02-23T00:01:54;5.20;99.90
2489;DHT22;1255;48.716;9.124;2024-02-23T00:04:21;5.20;99.90
2489;DHT22;1255;48.716;9.124;2024-02-23T00:06:48;5.20;99.90
2489;DHT22;1255;48.716;9.124;2024-02-23T00:09:15;5.20;99.90
2489;DHT22;1255;48.716;9.124;2024-02-23T00:11:41;5.10;99.90
2489;DHT22;1255;48.716;9.124;2024-02-23T00:14:10;5.10;99.90
2489;DHT22;1255;48.716;9.124;2024-02-23T00:16:40;5.10;99.90
2489;DHT22;1255;48.716;9.124;2024-02-23T00:19:09;5.10;99.90
2489;DHT22;1255;48.716;9.124;2024-02-23T00:21:37;5.10;99.90
2489;DHT22;1255;48.716;9.124;2024-02-23T00:24:05;5.10;99.90
2489;DHT22;1255;48.716;9.124;2024-02-23T00:26:32;5.10;99.90
2489;DHT22;1255;48.716;9.124;2024-02-23T00:28:59;5.10;99.90
2489;DHT22;1255;48.716;9.124;2024-02-23T00:31:25;5.10;99.90
2489;DHT22;1255;48.716;9.124;2024-02-23T00:33:52;5.10;99.90
2489;DHT22;1255;48.716;9.124;2024-02-23T00:36:20;5.10;99.90
2489;DHT22;1255;48.716;9.124;2024-02-23T00:38:47;5.10;99.90
2489;DHT22;1255;48.716;9.124;2024-02-23T00:41:14;5.10;99.90
2489;DHT22;1255;48.716;9.124;2024-02-23T00:43:41;5.10;99.90
2489;DHT22;1255;48.716;9.124;2024-02-23T00:46:08;5.10;99.90
2489;DHT22;1255;48.716;9.124;2024-02-23T00:48:35;5.10;99.90
2489;DHT22;1255;48.716;9.124;2024-02-23T00:51:02;5.10;99.90
2489;DHT22;1255;48.716;9.124;2024-02-23T00:53:31;5.10;99.90
2489;DHT22;1255;48.716;9.124;2024-02-23T00:55:58;5.10;99.90
2489;DHT22;1255;48.716;9.124;2024-02-23T00:58:25;5.10;99.90
2489;DHT22;1255;48.716;9.124;2024-02-23T01:00:51;5.10;99.90
2489;DHT22;1255;48.716;9.124;2024-02-23T01:03:18;5.10;99.90
2489;DHT22;1255;48.716;9.124;2024-02-23T01:05:44;5.10;99.90
2489;DHT22;1255;48.716;9.124;2024-02-23T01:08:10;5.10;99.90
2489;DHT22;1255;48.716;9.124;2024-02-23T01:10:38;5.00;99.90
2489;DHT22;1255;48.716;9.124;2024-02-23T01:13:05;5.00;99.90
2489;DHT22;1255;48.716;9.124;2024-02-23T01:15:32;5.00;99.90
2489;DHT22;1255;48.716;9.124;2024-02-23T01:17:59;5.00;99.90
2489;DHT22;1255;48.716;9.124;2024-02-23T01:20:26;5.00;99.90
2489;DHT22;1255;48.716;9.124;2024-02-23T01:22:53;4.90;99.90
2489;DHT22;1255;48.716;9.124;2024-02-23T01:25:20;4.90;99.90
2489;DHT22;1255;48.716;9.124;2024-02-23T01:27:48;4.90;99.90
2489;DHT22;1255;48.716;9.124;2024-02-23T01:30:15;4.90;99.90
2489;DHT22;1255;48.716;9.124;2024-02-23T01:32:41;4.80;99.90
2489;DHT22;1255;48.716;9.124;2024-02-23T01:35:08;4.80;99.90
2489;DHT22;1255;48.716;9.124;2024-02-23T01:37:35;4.80;99.90
2489;DHT22;1255;48.716;9.124;2024-02-23T01:40:03;4.80;99.90
2489;DHT22;1255;48.716;9.124;2024-02-23T01:42:29;4.80;99.90
2489;DHT22;1255;48.716;9.124;2024-02-23T01:44:57;4.90;99.90
2489;DHT22;1255;48.716;9.124;2024-02-23T01:47:24;4.90;99.90
2489;DHT22;1255;48.716;9.124;2024-02-23T01:49:51;4.80;99.90
2489;DHT22;1255;48.716;9.124;2024-02-23T01:52:18;4.80;99.90
2489;DHT22;1255;48.716;9.124;2024-02-23T01:54:46;4.80;99.90
2489;DHT22;1255;48.716;9.124;2024-02-23T01:57:14;4.80;99.90
2489;DHT22;1255;48.716;9.124;2024-02-23T01:59:41;4.80;99.90
2489;DHT22;1255;48.716;9.124;2024-02-23T02:02:09;4.80;99.90
2489;DHT22;1255;48.716;9.124;2024-02-23T02:04:36;4.80;99.90
2489;DHT22;1255;48.716;9.124;2024-02-23T02:07:03;4.80;99.90
2489;DHT22;1255;48.716;9.124;2024-02-23T02:09:30;4.80;99.90
2489;DHT22;1255;48.716;9.124;2024-02-23T02:11:57;4.70;99.90
2489;DHT22;1255;48.716;9.124;2024-02-23T02:14:24;4.70;99.90
2489;DHT22;1255;48.716;9.124;2024-02-23T02:16:51;4.70;99.90
2489;DHT22;1255;48.716;9.124;2024-02-23T02:19:19;4.70;99.90
2489;DHT22;1255;48.716;9.124;2024-02-23T02:21:46;4.80;99.90
2489;DHT22;1255;48.716;9.124;2024-02-23T02:24:12;4.70;99.90
2489;DHT22;1255;48.716;9.124;2024-02-23T02:26:39;4.70;99.90
2489;DHT22;1255;48.716;9.124;2024-02-23T02:29:06;4.60;99.90
2489;DHT22;1255;48.716;9.124;2024-02-23T02:31:33;4.70;99.90
2489;DHT22;1255;48.716;9.124;2024-02-23T02:34:03;4.60;99.90
2489;DHT22;1255;48.716;9.124;2024-02-23T02:36:31;4.60;99.90
2489;DHT22;1255;48.716;9.124;2024-02-23T02:38:58;4.60;99.90
2489;DHT22;1255;48.716;9.124;2024-02-23T02:41:28;4.60;99.90
2489;DHT22;1255;48.716;9.124;2024-02-23T02:43:55;4.50;99.90
2489;DHT22;1255;48.716;9.124;2024-02-23T02:46:22;4.60;99.90
2489;DHT22;1255;48.716;9.124;2024-02-23T02:48:48;4.50;99.90
2489;DHT22;1255;48.716;9.124;2024-02-23T02:51:15;4.60;99.90
2489;DHT22;1255;48.716;9.124;2024-02-23T02:53:43;4.60;99.90
2489;DHT22;1255;48.716;9.124;2024-02-23T02:56:10;4.60;99.90
2489;DHT22;1255;48.716;9.124;2024-02-23T02:58:36;4.70;99.90
2489;DHT22;1255;48.716;9.124;2024-02-23T03:01:03;4.70;99.90
2489;DHT22;1255;48.716;9.124;2024-02-23T03:03:30;4.70;99.90
2489;DHT22;1255;48.716;9.124;2024-02-23T03:05:57;4.70;99.90
2489;DHT22;1255;48.716;9.124;2024-02-23T03:08:23;4.70;99.90
2489;DHT22;1255;48.716;9.124;2024-02-23T03:10:51;4.70;99.90
2489;DHT22;1255;48.716;9.124;2024-02-23T03:13:18;4.70;99.90
2489;DHT22;1255;48.716;9.124;2024-02-23T03:15:45;4.70;99.90
2489;DHT22;1255;48.716;9.124;2024-02-23T03:18:11;4.80;99.90
2489;DHT22;1255;48.716;9.124;2024-02-23T03:20:40;4.80;99.90
2489;DHT22;1255;48.716;9.124;2024-02-23T03:23:07;4.80;99.90
2489;DHT22;1255;48.716;9.124;2024-02-23T03:25:33;4.80;99.90
2489;DHT22;1255;48.716;9.124;2024-02-23T03:28:02;4.70;99.90
2489;DHT22;1255;48.716;9.124;2024-02-23T03:30:28;4.80;99.90
2489;DHT22;1255;48.716;9.124;2024-02-23T03:32:55;4.70;99.90
2489;DHT22;1255;48.716;9.124;2024-02-23T03:35:22;4.70;99.90
2489;DHT22;1255;48.716;9.124;2024-02-23T03:37:48;4.70;99.90
2489;DHT22;1255;48.716;9.124;2024-02-23T03:40:15;4.70;99.90
2489;DHT22;1255;48.716;9.124;2024-02-23T03:42:43;4.60;99.90
2489;DHT22;1255;48.716;9.124;2024-02-23T03:45:11;4.70;99.90
2489;DHT22;1255;48.716;9.124;2024-02-23T03:47:38;4.60;99.90
2489;DHT22;1255;48.716;9.124;2024-02-23T03:50:06;4.60;99.90
2489;DHT22;1255;48.716;9.124;2024-02-23T03:52:33;4.70;99.90
2489;DHT22;1255;48.716;9.124;2024-02-23T03:55:00;4.60;99.90
2489;DHT22;1255;48.716;9.124;2024-02-23T03:57:27;4.50;99.90
2489;DHT22;1255;48.716;9.124;2024-02-23T03:59:54;4.60;99.90
2489;DHT22;1255;48.716;9.124;2024-02-23T04:02:22;4.60;99.90
2489;DHT22;1255;48.716;9.124;2024-02-23T04:04:49;4.60;99.90
2489;DHT22;1255;48.716;9.124;2024-02-23T04:07:16;4.60;99.90
2489;DHT22;1255;48.716;9.124;2024-02-23T04:09:42;4.50;99.90
2489;DHT22;1255;48.716;9.124;2024-02-23T04:12:09;4.50;99.90
2489;DHT22;1255;48.716;9.124;2024-02-23T04:14:36;4.50;99.90
2489;DHT22;1255;48.716;9.124;2024-02-23T04:17:03;4.40;99.90
2489;DHT22;1255;48.716;9.124;2024-02-23T04:19:31;4.40;99.90
2489;DHT22;1255;48.716;9.124;2024-02-23T04:21:57;4.40;99.90
2489;DHT22;1255;48.716;9.124;2024-02-23T04:24:24;4.40;99.90
2489;DHT22;1255;48.716;9.124;2024-02-23T04:26:52;4.40;99.90
2489;DHT22;1255;48.716;9.124;2024-02-23T04:29:18;4.30;99.90
2489;DHT22;1255;48.716;9.124;2024-02-23T04:31:45;4.30;99.90
2489;DHT22;1255;48.716;9.124;2024-02-23T04:34:12;4.30;99.90
2489;DHT22;1255;48.716;9.124;2024-02-23T04:36:40;4.30;99.90
2489;DHT22;1255;48.716;9.124;2024-02-23T04:39:07;4.30;99.90
2489;DHT22;1255;48.716;9.124;2024-02-23T04:41:34;4.30;99.90
2489;DHT22;1255;48.716;9.124;2024-02-23T04:44:01;4.30;99.90
2489;DHT22;1255;48.716;9.124;2024-02-23T04:46:27;4.30;99.90
2489;DHT22;1255;48.716;9.124;2024-02-23T04:48:55;4.30;99.90
2489;DHT22;1255;48.716;9.124;2024-02-23T04:51:21;4.30;99.90
2489;DHT22;1255;48.716;9.124;2024-02-23T04:53:50;4.30;99.90
2489;DHT22;1255;48.716;9.124;2024-02-23T04:56:17;4.30;99.90
2489;DHT22;1255;48.716;9.124;2024-02-23T04:58:44;4.20;99.90
2489;DHT22;1255;48.716;9.124;2024-02-23T05:01:11;4.20;99.90
2489;DHT22;1255;48.716;9.124;2024-02-23T05:03:38;4.20;99.90
2489;DHT22;1255;48.716;9.124;2024-02-23T05:06:05;4.20;99.90
2489;DHT22;1255;48.716;9.124;2024-02-23T05:08:31;4.10;99.90
2489;DHT22;1255;48.716;9.124;2024-02-23T05:11:00;4.10;99.90
2489;DHT22;1255;48.716;9.124;2024-02-23T05:13:26;4.10;99.90
2489;DHT22;1255;48.716;9.124;2024-02-23T05:15:55;4.10;99.90
2489;DHT22;1255;48.716;9.124;2024-02-23T05:18:22;4.10;99.90
2489;DHT22;1255;48.716;9.124;2024-02-23T05:20:49;4.10;99.90
2489;DHT22;1255;48.716;9.124;2024-02-23T05:23:15;4.10;99.90
2489;DHT22;1255;48.716;9.124;2024-02-23T05:25:42;4.10;99.90
2489;DHT22;1255;48.716;9.124;2024-02-23T05:28:10;4.00;99.90
2489;DHT22;1255;48.716;9.124;2024-02-23T05:30:37;4.00;99.90
2489;DHT22;1255;48.716;9.124;2024-02-23T05:33:04;3.90;99.90
2489;DHT22;1255;48.716;9.124;2024-02-23T05:35:30;3.90;99.90
2489;DHT22;1255;48.716;9.124;2024-02-23T05:37:57;3.80;99.90
2489;DHT22;1255;48.716;9.124;2024-02-23T05:40:24;3.80;99.90
2489;DHT22;1255;48.716;9.124;2024-02-23T05:42:50;3.80;99.90
2489;DHT22;1255;48.716;9.124;2024-02-23T05:45:18;3.80;99.90
2489;DHT22;1255;48.716;9.124;2024-02-23T05:47:45;3.70;99.90
2489;DHT22;1255;48.716;9.124;2024-02-23T05:50:12;3.70;99.90
2489;DHT22;1255;48.716;9.124;2024-02-23T05:52:38;3.70;99.90
2489;DHT22;1255;48.716;9.124;2024-02-23T05:55:05;3.60;99.90
2489;DHT22;1255;48.716;9.124;2024-02-23T05:57:33;3.50;99.90
2489;DHT22;1255;48.716;9.124;2024-02-23T05:59:59;3.50;99.90
2489;DHT22;1255;48.716;9.124;2024-02-23T06:02:27;3.40;99.90
2489;DHT22;1255;48.716;9.124;2024-02-23T06:04:54;3.40;99.90
2489;DHT22;1255;48.716;9.124;2024-02-23T06:07:21;3.40;99.90
2489;DHT22;1255;48.716;9.124;2024-02-23T06:09:54;3.30;99.90
2489;DHT22;1255;48.716;9.124;2024-02-23T06:12:21;3.30;99.90
2489;DHT22;1255;48.716;9.124;2024-02-23T06:14:48;3.30;99.90
2489;DHT22;1255;48.716;9.124;2024-02-23T06:17:15;3.30;99.90
2489;DHT22;1255;48.716;9.124;2024-02-23T06:19:43;3.30;99.90
2489;DHT22;1255;48.716;9.124;2024-02-23T06:22:09;3.30;99.90
2489;DHT22;1255;48.716;9.124;2024-02-23T06:24:37;3.30;99.90
2489;DHT22;1255;48.716;9.124;2024-02-23T06:27:04;3.30;99.90
2489;DHT22;1255;48.716;9.124;2024-02-23T06:29:31;3.30;99.90
2489;DHT22;1255;48.716;9.124;2024-02-23T06:31:57;3.30;99.90
2489;DHT22;1255;48.716;9.124;2024-02-23T06:34:26;3.30;99.90
2489;DHT22;1255;48.716;9.124;2024-02-23T06:36:55;3.30;99.90
2489;DHT22;1255;48.716;9.124;2024-02-23T06:39:21;3.30;99.90
2489;DHT22;1255;48.716;9.124;2024-02-23T06:41:48;3.30;99.90
2489;DHT22;1255;48.716;9.124;2024-02-23T06:44:15;3.30;99.90
2489;DHT22;1255;48.716;9.124;2024-02-23T06:46:41;3.40;99.90
2489;DHT22;1255;48.716;9.124;2024-02-23T06:49:10;3.40;99.90
2489;DHT22;1255;48.716;9.124;2024-02-23T06:51:36;3.50;99.90
2489;DHT22;1255;48.716;9.124;2024-02-23T06:54:05;3.60;99.90
2489;DHT22;1255;48.716;9.124;2024-02-23T06:56:31;3.60;99.90
2489;DHT22;1255;48.716;9.124;2024-02-23T06:58:59;3.70;99.90
2489;DHT22;1255;48.716;9.124;2024-02-23T07:01:26;3.70;99.90
2489;DHT22;1255;48.716;9.124;2024-02-23T07:03:53;3.60;99.90
2489;DHT22;1255;48.716;9.124;2024-02-23T07:06:20;3.70;99.90
2489;DHT22;1255;48.716;9.124;2024-02-23T07:08:46;3.70;99.90
2489;DHT22;1255;48.716;9.124;2024-02-23T07:11:14;3.70;99.90
2489;DHT22;1255;48.716;9.124;2024-02-23T07:13:42;3.70;99.90
2489;DHT22;1255;48.716;9.124;2024-02-23T07:16:09;3.70;99.90
2489;DHT22;1255;48.716;9.124;2024-02-23T07:18:36;3.70;99.90
2489;DHT22;1255;48.716;9.124;2024-02-23T07:21:03;3.70;99.90
2489;DHT22;1255;48.716;9.124;2024-02-23T07:23:29;3.70;99.90
2489;DHT22;1255;48.716;9.124;2024-02-23T07:25:56;3.70;99.90
2489;DHT22;1255;48.716;9.124;2024-02-23T07:28:24;3.70;99.90
2489;DHT22;1255;48.716;9.124;2024-02-23T07:30:51;3.80;99.90
2489;DHT22;1255;48.716;9.124;2024-02-23T07:33:18;3.80;99.90
2489;DHT22;1255;48.716;9.124;2024-02-23T07:35:45;3.80;99.90
2489;DHT22;1255;48.716;9.124;2024-02-23T07:38:12;3.80;99.90
2489;DHT22;1255;48.716;9.124;2024-02-23T07:40:38;3.90;99.90
2489;DHT22;1255;48.716;9.124;2024-02-23T07:43:05;3.90;99.90
2489;DHT22;1255;48.716;9.124;2024-02-23T07:45:33;4.00;99.90
2489;DHT22;1255;48.716;9.124;2024-02-23T07:48:00;4.20;99.90
2489;DHT22;1255;48.716;9.124;2024-02-23T07:50:27;4.40;99.90
2489;DHT22;1255;48.716;9.124;2024-02-23T07:52:54;4.40;99.90
2489;DHT22;1255;48.716;9.124;2024-02-23T07:55:21;4.40;99.90
2489;DHT22;1255;48.716;9.124;2024-02-23T07:57:47;4.40;99.90
2489;DHT22;1255;48.716;9.124;2024-02-23T08:00:15;4.40;99.90
2489;DHT22;1255;48.716;9.124;2024-02-23T08:02:43;4.20;99.90
2489;DHT22;1255;48.716;9.124;2024-02-23T08:05:09;4.20;99.90
2489;DHT22;1255;48.716;9.124;2024-02-23T08:07:36;4.30;99.90
2489;DHT22;1255;48.716;9.124;2024-02-23T08:10:03;4.30;99.90
2489;DHT22;1255;48.716;9.124;2024-02-23T08:12:30;4.20;99.90
2489;DHT22;1255;48.716;9.124;2024-02-23T08:14:57;4.20;99.90
2489;DHT22;1255;48.716;9.124;2024-02-23T08:17:23;4.30;99.90
2489;DHT22;1255;48.716;9.124;2024-02-23T08:19:52;4.30;99.90
2489;DHT22;1255;48.716;9.124;2024-02-23T08:22:18;4.40;99.90
2489;DHT22;1255;48.716;9.124;2024-02-23T08:24:45;4.50;99.90
2489;DHT22;1255;48.716;9.124;2024-02-23T08:27:12;4.60;99.90
2489;DHT22;1255;48.716;9.124;2024-02-23T08:29:39;4.80;99.90
2489;DHT22;1255;48.716;9.124;2024-02-23T08:32:07;5.00;99.90
2489;DHT22;1255;48.716;9.124;2024-02-23T08:34:34;5.00;99.90
2489;DHT22;1255;48.716;9.124;2024-02-23T08:37:02;5.00;99.90
2489;DHT22;1255;48.716;9.124;2024-02-23T08:39:29;5.10;99.90
2489;DHT22;1255;48.716;9.124;2024-02-23T08:41:55;5.00;99.90
2489;DHT22;1255;48.716;9.124;2024-02-23T08:44:22;5.00;99.90
2489;DHT22;1255;48.716;9.124;2024-02-23T08:46:49;4.90;99.90
2489;DHT22;1255;48.716;9.124;2024-02-23T08:49:15;4.90;99.90
2489;DHT22;1255;48.716;9.124;2024-02-23T08:51:51;4.90;99.90
2489;DHT22;1255;48.716;9.124;2024-02-23T08:54:20;4.80;99.90
2489;DHT22;1255;48.716;9.124;2024-02-23T08:56:47;4.70;99.90
2489;DHT22;1255;48.716;9.124;2024-02-23T08:59:14;4.70;99.90
2489;DHT22;1255;48.716;9.124;2024-02-23T09:01:41;4.60;99.90
2489;DHT22;1255;48.716;9.124;2024-02-23T09:04:09;4.60;99.90
2489;DHT22;1255;48.716;9.124;2024-02-23T09:06:36;4.60;99.90
2489;DHT22;1255;48.716;9.124;2024-02-23T09:09:03;4.50;99.90
2489;DHT22;1255;48.716;9.124;2024-02-23T09:11:32;4.50;99.90
2489;DHT22;1255;48.716;9.124;2024-02-23T09:13:59;4.60;99.90
2489;DHT22;1255;48.716;9.124;2024-02-23T09:16:26;4.60;99.90
2489;DHT22;1255;48.716;9.124;2024-02-23T09:18:53;4.60;99.90
2489;DHT22;1255;48.716;9.124;2024-02-23T09:21:20;4.60;99.90
2489;DHT22;1255;48.716;9.124;2024-02-23T09:23:47;4.80;99.90
2489;DHT22;1255;48.716;9.124;2024-02-23T09:26:13;4.80;99.90
2489;DHT22;1255;48.716;9.124;2024-02-23T09:28:42;4.90;99.90
2489;DHT22;1255;48.716;9.124;2024-02-23T09:31:10;5.00;99.90
2489;DHT22;1255;48.716;9.124;2024-02-23T09:33:37;5.00;99.90
2489;DHT22;1255;48.716;9.124;2024-02-23T09:36:06;5.10;99.90
2489;DHT22;1255;48.716;9.124;2024-02-23T09:38:38;5.30;99.90
2489;DHT22;1255;48.716;9.124;2024-02-23T09:41:15;5.30;99.90
2489;DHT22;1255;48.716;9.124;2024-02-23T09:43:47;5.50;99.90
2489;DHT22;1255;48.716;9.124;2024-02-23T09:46:15;6.00;99.90
2489;DHT22;1255;48.716;9.124;2024-02-23T09:48:43;6.70;99.90
2489;DHT22;1255;48.716;9.124;2024-02-23T09:51:16;7.60;99.90
2489;DHT22;1255;48.716;9.124;2024-02-23T09:56:57;8.30;99.90
2489;DHT22;1255;48.716;9.124;2024-02-23T09:59:47;8.60;99.90
2489;DHT22;1255;48.716;9.124;2024-02-23T10:02:22;8.40;99.90
2489;DHT22;1255;48.716;9.124;2024-02-23T10:04:50;8.50;99.90
2489;DHT22;1255;48.716;9.124;2024-02-23T10:07:18;8.70;99.90
2489;DHT22;1255;48.716;9.124;2024-02-23T10:09:44;8.60;99.90
2489;DHT22;1255;48.716;9.124;2024-02-23T10:12:11;9.20;99.90
2489;DHT22;1255;48.716;9.124;2024-02-23T10:14:41;9.40;99.90
2489;DHT22;1255;48.716;9.124;2024-02-23T10:17:07;8.70;99.90
2489;DHT22;1255;48.716;9.124;2024-02-23T10:19:34;8.20;99.90
2489;DHT22;1255;48.716;9.124;2024-02-23T10:22:01;8.20;99.90
2489;DHT22;1255;48.716;9.124;2024-02-23T10:24:28;8.10;99.90
2489;DHT22;1255;48.716;9.124;2024-02-23T10:26:54;8.00;99.90
2489;DHT22;1255;48.716;9.124;2024-02-23T10:29:21;7.80;99.90
2489;DHT22;1255;48.716;9.124;2024-02-23T10:31:51;7.60;99.90
2489;DHT22;1255;48.716;9.124;2024-02-23T10:34:19;7.20;99.90
2489;DHT22;1255;48.716;9.124;2024-02-23T10:36:46;6.90;99.90
2489;DHT22;1255;48.716;9.124;2024-02-23T10:39:16;6.80;99.90
2489;DHT22;1255;48.716;9.124;2024-02-23T10:41:47;6.60;99.90
2489;DHT22;1255;48.716;9.124;2024-02-23T10:44:16;6.70;99.90
2489;DHT22;1255;48.716;9.124;2024-02-23T10:46:43;7.00;99.90
2489;DHT22;1255;48.716;9.124;2024-02-23T10:49:12;7.20;99.90
2489;DHT22;1255;48.716;9.124;2024-02-23T10:51:42;7.20;99.90
2489;DHT22;1255;48.716;9.124;2024-02-23T10:54:10;7.40;99.90
2489;DHT22;1255;48.716;9.124;2024-02-23T10:56:38;7.60;99.90
2489;DHT22;1255;48.716;9.124;2024-02-23T10:59:04;8.00;99.90
2489;DHT22;1255;48.716;9.124;2024-02-23T11:01:33;8.30;99.90
2489;DHT22;1255;48.716;9.124;2024-02-23T11:04:02;7.90;99.90
2489;DHT22;1255;48.716;9.124;2024-02-23T11:06:30;7.60;99.90
2489;DHT22;1255;48.716;9.124;2024-02-23T11:09:06;7.40;99.90
2489;DHT22;1255;48.716;9.124;2024-02-23T11:11:34;7.30;99.90
2489;DHT22;1255;48.716;9.124;2024-02-23T11:14:03;7.20;99.90
2489;DHT22;1255;48.716;9.124;2024-02-23T11:16:38;7.30;99.90
2489;DHT22;1255;48.716;9.124;2024-02-23T11:19:06;7.40;99.90
2489;DHT22;1255;48.716;9.124;2024-02-23T11:21:36;7.50;99.90
2489;DHT22;1255;48.716;9.124;2024-02-23T11:24:04;7.20;99.90
2489;DHT22;1255;48.716;9.124;2024-02-23T11:26:32;7.10;99.90
2489;DHT22;1255;48.716;9.124;2024-02-23T11:28:59;7.10;99.90
2489;DHT22;1255;48.716;9.124;2024-02-23T11:31:30;7.00;99.90
2489;DHT22;1255;48.716;9.124;2024-02-23T11:33:57;6.90;99.90
2489;DHT22;1255;48.716;9.124;2024-02-23T11:36:28;7.00;99.90
2489;DHT22;1255;48.716;9.124;2024-02-23T11:38:57;7.00;99.90
2489;DHT22;1255;48.716;9.124;2024-02-23T11:41:25;7.00;99.90
2489;DHT22;1255;48.716;9.124;2024-02-23T11:43:52;7.20;99.90
2489;DHT22;1255;48.716;9.124;2024-02-23T11:46:21;7.50;99.90
2489;DHT22;1255;48.716;9.124;2024-02-23T11:48:48;7.60;99.90
2489;DHT22;1255;48.716;9.124;2024-02-23T11:51:19;7.70;99.90
2489;DHT22;1255;48.716;9.124;2024-02-23T11:53:45;7.80;99.90
2489;DHT22;1255;48.716;9.124;2024-02-23T11:56:14;7.70;99.90
2489;DHT22;1255;48.716;9.124;2024-02-23T11:58:41;7.50;99.90
2489;DHT22;1255;48.716;9.124;2024-02-23T12:01:08;7.40;99.90
2489;DHT22;1255;48.716;9.124;2024-02-23T12:03:35;7.50;99.90
2489;DHT22;1255;48.716;9.124;2024-02-23T12:06:03;7.50;99.90
2489;DHT22;1255;48.716;9.124;2024-02-23T12:08:31;7.60;99.90
2489;DHT22;1255;48.716;9.124;2024-02-23T12:11:03;7.70;99.90
2489;DHT22;1255;48.716;9.124;2024-02-23T12:13:32;7.70;99.90
2489;DHT22;1255;48.716;9.124;2024-02-23T12:15:59;7.50;99.90
2489;DHT22;1255;48.716;9.124;2024-02-23T12:18:25;7.30;99.90
2489;DHT22;1255;48.716;9.124;2024-02-23T12:20:53;7.20;99.90
2489;DHT22;1255;48.716;9.124;2024-02-23T12:23:19;7.10;99.90
2489;DHT22;1255;48.716;9.124;2024-02-23T12:25:56;7.10;99.90
2489;DHT22;1255;48.716;9.124;2024-02-23T12:28:24;7.00;99.90
2489;DHT22;1255;48.716;9.124;2024-02-23T12:31:00;6.90;99.90
2489;DHT22;1255;48.716;9.124;2024-02-23T12:33:27;6.90;99.90
2489;DHT22;1255;48.716;9.124;2024-02-23T12:35:55;7.00;99.90
2489;DHT22;1255;48.716;9.124;2024-02-23T12:38:22;7.00;99.90
2489;DHT22;1255;48.716;9.124;2024-02-23T12:40:49;7.00;99.90
2489;DHT22;1255;48.716;9.124;2024-02-23T12:43:16;7.00;99.90
2489;DHT22;1255;48.716;9.124;2024-02-23T12:45:43;7.10;99.90
2489;DHT22;1255;48.716;9.124;2024-02-23T12:48:12;7.00;99.90
2489;DHT22;1255;48.716;9.124;2024-02-23T12:50:38;7.10;99.90
2489;DHT22;1255;48.716;9.124;2024-02-23T12:53:05;7.10;99.90
2489;DHT22;1255;48.716;9.124;2024-02-23T12:55:32;7.10;99.90
2489;DHT22;1255;48.716;9.124;2024-02-23T12:57:59;6.90;99.90
2489;DHT22;1255;48.716;9.124;2024-02-23T13:00:26;7.00;99.90
2489;DHT22;1255;48.716;9.124;2024-02-23T13:02:53;7.10;99.90
2489;DHT22;1255;48.716;9.124;2024-02-23T13:05:21;7.30;99.90
2489;DHT22;1255;48.716;9.124;2024-02-23T13:07:47;7.30;99.90
2489;DHT22;1255;48.716;9.124;2024-02-23T13:10:14;7.40;99.90
2489;DHT22;1255;48.716;9.124;2024-02-23T13:12:43;7.40;99.90
2489;DHT22;1255;48.716;9.124;2024-02-23T13:15:10;7.60;99.90
2489;DHT22;1255;48.716;9.124;2024-02-23T13:17:37;8.00;99.90
2489;DHT22;1255;48.716;9.124;2024-02-23T13:20:04;8.20;99.90
2489;DHT22;1255;48.716;9.124;2024-02-23T13:22:33;8.00;99.90
2489;DHT22;1255;48.716;9.124;2024-02-23T13:25:00;7.70;99.90
2489;DHT22;1255;48.716;9.124;2024-02-23T13:27:27;7.50;99.90
2489;DHT22;1255;48.716;9.124;2024-02-23T13:29:55;7.50;99.90
2489;DHT22;1255;48.716;9.124;2024-02-23T13:32:22;7.50;99.90
2489;DHT22;1255;48.716;9.124;2024-02-23T13:34:49;7.50;99.90
2489;DHT22;1255;48.716;9.124;2024-02-23T13:37:17;7.40;99.90
2489;DHT22;1255;48.716;9.124;2024-02-23T13:39:45;7.20;99.90
2489;DHT22;1255;48.716;9.124;2024-02-23T13:42:12;7.20;99.90
2489;DHT22;1255;48.716;9.124;2024-02-23T13:44:39;7.20;99.90
2489;DHT22;1255;48.716;9.124;2024-02-23T13:47:05;7.20;99.90
2489;DHT22;1255;48.716;9.124;2024-02-23T13:49:32;7.20;99.90
2489;DHT22;1255;48.716;9.124;2024-02-23T13:51:59;7.30;99.90
2489;DHT22;1255;48.716;9.124;2024-02-23T13:54:26;7.40;99.90
2489;DHT22;1255;48.716;9.124;2024-02-23T13:56:54;7.30;99.90
2489;DHT22;1255;48.716;9.124;2024-02-23T13:59:21;7.30;99.90
2489;DHT22;1255;48.716;9.124;2024-02-23T14:01:47;7.30;99.90
2489;DHT22;1255;48.716;9.124;2024-02-23T14:04:14;7.20;99.90
2489;DHT22;1255;48.716;9.124;2024-02-23T14:06:42;7.20;99.90
2489;DHT22;1255;48.716;9.124;2024-02-23T14:09:09;7.20;99.90
2489;DHT22;1255;48.716;9.124;2024-02-23T14:11:36;7.20;99.90
2489;DHT22;1255;48.716;9.124;2024-02-23T14:14:04;7.30;99.90
2489;DHT22;1255;48.716;9.124;2024-02-23T14:16:31;7.40;99.90
2489;DHT22;1255;48.716;9.124;2024-02-23T14:18:57;7.50;99.90
2489;DHT22;1255;48.716;9.124;2024-02-23T14:21:24;7.60;99.90
2489;DHT22;1255;48.716;9.124;2024-02-23T14:23:52;7.60;99.90
2489;DHT22;1255;48.716;9.124;2024-02-23T14:26:18;7.70;99.90
2489;DHT22;1255;48.716;9.124;2024-02-23T14:28:45;8.00;99.90
2489;DHT22;1255;48.716;9.124;2024-02-23T14:31:13;8.40;99.90
2489;DHT22;1255;48.716;9.124;2024-02-23T14:33:40;8.40;99.90
2489;DHT22;1255;48.716;9.124;2024-02-23T14:36:07;8.50;99.90
2489;DHT22;1255;48.716;9.124;2024-02-23T14:38:34;8.70;99.90
2489;DHT22;1255;48.716;9.124;2024-02-23T14:41:01;8.80;99.90
2489;DHT22;1255;48.716;9.124;2024-02-23T14:43:27;8.70;99.90
2489;DHT22;1255;48.716;9.124;2024-02-23T14:45:56;8.50;99.90
2489;DHT22;1255;48.716;9.124;2024-02-23T14:48:24;8.30;99.90
2489;DHT22;1255;48.716;9.124;2024-02-23T14:50:51;8.10;99.90
2489;DHT22;1255;48.716;9.124;2024-02-23T14:53:17;8.10;99.90
2489;DHT22;1255;48.716;9.124;2024-02-23T14:55:44;8.10;99.90
2489;DHT22;1255;48.716;9.124;2024-02-23T14:58:11;8.00;99.90
2489;DHT22;1255;48.716;9.124;2024-02-23T15:00:38;8.00;99.90
2489;DHT22;1255;48.716;9.124;2024-02-23T15:03:05;8.00;99.90
2489;DHT22;1255;48.716;9.124;2024-02-23T15:05:35;8.00;99.90
2489;DHT22;1255;48.716;9.124;2024-02-23T15:08:02;8.00;99.90
2489;DHT22;1255;48.716;9.124;2024-02-23T15:10:29;7.70;99.90
2489;DHT22;1255;48.716;9.124;2024-02-23T15:12:56;7.70;99.90
2489;DHT22;1255;48.716;9.124;2024-02-23T15:15:22;7.60;99.90
2489;DHT22;1255;48.716;9.124;2024-02-23T15:17:49;7.50;99.90
2489;DHT22;1255;48.716;9.124;2024-02-23T15:20:17;7.50;99.90
2489;DHT22;1255;48.716;9.124;2024-02-23T15:22:46;7.50;99.90
2489;DHT22;1255;48.716;9.124;2024-02-23T15:25:15;7.40;99.90
2489;DHT22;1255;48.716;9.124;2024-02-23T15:27:41;7.40;99.90
2489;DHT22;1255;48.716;9.124;2024-02-23T15:30:09;7.40;99.90
2489;DHT22;1255;48.716;9.124;2024-02-23T15:32:36;7.40;99.90
2489;DHT22;1255;48.716;9.124;2024-02-23T15:35:04;7.40;99.90
2489;DHT22;1255;48.716;9.124;2024-02-23T15:37:30;7.50;99.90
2489;DHT22;1255;48.716;9.124;2024-02-23T15:39:59;7.50;99.90
2489;DHT22;1255;48.716;9.124;2024-02-23T15:42:25;7.50;99.90
2489;DHT22;1255;48.716;9.124;2024-02-23T15:44:52;7.50;99.90
2489;DHT22;1255;48.716;9.124;2024-02-23T15:47:22;7.50;99.90
2489;DHT22;1255;48.716;9.124;2024-02-23T15:49:53;7.60;99.90
2489;DHT22;1255;48.716;9.124;2024-02-23T15:52:20;7.60;99.90
2489;DHT22;1255;48.716;9.124;2024-02-23T15:54:47;7.60;99.90
2489;DHT22;1255;48.716;9.124;2024-02-23T15:57:15;7.60;99.90
2489;DHT22;1255;48.716;9.124;2024-02-23T15:59:42;7.60;99.90
2489;DHT22;1255;48.716;9.124;2024-02-23T16:02:09;7.60;99.90
2489;DHT22;1255;48.716;9.124;2024-02-23T16:04:36;7.60;99.90
2489;DHT22;1255;48.716;9.124;2024-02-23T16:07:03;7.60;99.90
2489;DHT22;1255;48.716;9.124;2024-02-23T16:09:32;7.50;99.90
2489;DHT22;1255;48.716;9.124;2024-02-23T16:12:00;7.50;99.90
2489;DHT22;1255;48.716;9.124;2024-02-23T16:14:28;7.40;99.90
2489;DHT22;1255;48.716;9.124;2024-02-23T16:16:55;7.10;99.90
2489;DHT22;1255;48.716;9.124;2024-02-23T16:19:22;6.90;99.90
2489;DHT22;1255;48.716;9.124;2024-02-23T16:21:53;6.80;99.90